createdAt,value
2019-01-08T00:02:15.928Z,6.06
2019-01-08T00:05:03.511Z,5.98
2019-01-08T00:07:50.927Z,6.11
2019-01-08T00:10:37.989Z,6.67
2019-01-08T00:13:25.421Z,6.78
2019-01-08T00:16:12.464Z,6.86
2019-01-08T00:18:59.517Z,6.47
2019-01-08T00:21:46.365Z,6.32
2019-01-08T00:24:33.419Z,6.53
2019-01-08T00:27:20.448Z,6.80
2019-01-08T00:30:08.277Z,6.86
2019-01-08T00:32:55.510Z,7.21
2019-01-08T00:35:42.829Z,6.95
2019-01-08T00:38:29.847Z,6.83
2019-01-08T00:41:16.950Z,6.76
2019-01-08T00:44:04.127Z,6.69
2019-01-08T00:46:51.169Z,6.95
2019-01-08T00:49:38.257Z,7.11
2019-01-08T00:52:25.420Z,7.24
2019-01-08T00:55:12.588Z,6.93
2019-01-08T00:57:59.935Z,6.91
2019-01-08T01:00:47.156Z,6.69
2019-01-08T01:03:34.490Z,7.00
2019-01-08T01:06:21.829Z,6.90
2019-01-08T01:09:09.181Z,6.67
2019-01-08T01:11:56.563Z,6.86
2019-01-08T01:14:43.679Z,6.74
2019-01-08T01:17:30.904Z,6.76
2019-01-08T01:20:18.074Z,6.28
2019-01-08T01:23:05.228Z,6.64
2019-01-08T01:25:52.442Z,6.90
2019-01-08T01:28:39.613Z,6.69
2019-01-08T01:31:26.945Z,6.41
2019-01-08T01:34:14.060Z,6.66
2019-01-08T01:37:01.730Z,6.91
2019-01-08T01:39:48.682Z,6.63
2019-01-08T01:42:36.079Z,6.80
2019-01-08T01:45:23.450Z,6.93
2019-01-08T01:48:10.990Z,6.87
2019-01-08T01:50:58.048Z,6.47
2019-01-08T01:53:45.290Z,6.61
2019-01-08T01:56:32.726Z,6.70
2019-01-08T01:59:20.066Z,6.88
2019-01-08T02:02:07.506Z,7.07
2019-01-08T02:04:55.382Z,6.75
2019-01-08T02:07:42.540Z,6.68
2019-01-08T02:10:29.767Z,6.85
2019-01-08T02:13:17.064Z,6.88
2019-01-08T02:16:04.372Z,6.94
2019-01-08T02:18:51.633Z,6.76
2019-01-08T02:21:38.991Z,6.75
2019-01-08T02:24:26.147Z,7.07
2019-01-08T02:27:13.581Z,7.05
2019-01-08T02:30:00.601Z,7.23
2019-01-08T02:32:47.714Z,7.24
2019-01-08T02:35:34.846Z,7.58
2019-01-08T02:38:22.363Z,7.39
2019-01-08T02:41:09.521Z,7.23
2019-01-08T02:43:56.614Z,7.58
2019-01-08T02:46:44.330Z,7.19
2019-01-08T02:49:31.603Z,7.06
2019-01-08T02:52:18.807Z,7.17
2019-01-08T02:55:06.374Z,7.37
2019-01-08T02:57:53.503Z,7.34
2019-01-08T03:00:40.531Z,7.59
2019-01-08T03:03:27.873Z,7.65
2019-01-08T03:06:15.153Z,8.01
2019-01-08T03:09:02.230Z,8.03
2019-01-08T03:11:49.336Z,8.27
2019-01-08T03:14:36.860Z,8.27
2019-01-08T03:17:23.939Z,8.29
2019-01-08T03:20:11.090Z,8.37
2019-01-08T03:22:58.416Z,8.34
2019-01-08T03:25:45.563Z,8.30
2019-01-08T03:28:32.918Z,8.28
2019-01-08T03:31:20.225Z,8.33
2019-01-08T03:34:07.046Z,8.27
2019-01-08T03:36:54.378Z,8.47
2019-01-08T03:39:41.164Z,8.59
2019-01-08T03:42:28.794Z,8.57
2019-01-08T03:45:15.845Z,8.49
2019-01-08T03:48:02.998Z,8.42
2019-01-08T03:50:50.350Z,8.39
2019-01-08T03:53:37.585Z,8.11
2019-01-08T03:56:24.669Z,8.24
2019-01-08T03:59:11.834Z,8.30
2019-01-08T04:01:59.125Z,8.35
2019-01-08T04:04:46.216Z,8.49
2019-01-08T04:07:33.277Z,8.24
2019-01-08T04:10:20.507Z,8.44
2019-01-08T04:13:07.803Z,8.39
2019-01-08T04:15:55.126Z,8.27
2019-01-08T04:18:42.293Z,8.18
2019-01-08T04:21:29.473Z,8.32
2019-01-08T04:24:16.832Z,8.40
2019-01-08T04:27:04.212Z,8.59
2019-01-08T04:29:51.591Z,8.50
2019-01-08T04:32:38.364Z,8.53
2019-01-08T04:35:25.788Z,8.44
2019-01-08T04:38:13.247Z,8.25
2019-01-08T04:41:00.539Z,8.19
2019-01-08T04:43:47.944Z,8.31
2019-01-08T04:46:34.832Z,8.28
2019-01-08T04:49:22.190Z,8.40
2019-01-08T04:52:09.217Z,8.48
2019-01-08T04:54:56.322Z,8.40
2019-01-08T04:57:43.897Z,8.46
2019-01-08T05:00:31.250Z,8.25
2019-01-08T05:03:18.392Z,8.20
2019-01-08T05:06:08.306Z,8.11
2019-01-08T05:08:55.496Z,8.10
2019-01-08T05:11:42.794Z,8.37
2019-01-08T05:14:30.069Z,8.14
2019-01-08T05:17:17.230Z,8.01
2019-01-08T05:20:06.444Z,8.04
2019-01-08T05:22:53.726Z,8.21
2019-01-08T05:25:40.856Z,8.27
2019-01-08T05:28:28.201Z,8.09
2019-01-08T05:31:15.316Z,8.17
2019-01-08T05:34:02.650Z,8.53
2019-01-08T05:36:49.752Z,8.29
2019-01-08T05:39:36.803Z,7.86
2019-01-08T05:42:23.644Z,7.96
2019-01-08T05:45:10.974Z,8.03
2019-01-08T05:47:58.005Z,7.70
2019-01-08T05:50:45.059Z,7.81
2019-01-08T05:53:32.519Z,7.79
2019-01-08T05:56:20.003Z,7.53
2019-01-08T05:59:07.431Z,7.52
2019-01-08T06:01:54.356Z,7.40
2019-01-08T06:04:42.156Z,7.58
2019-01-08T06:07:29.436Z,7.87
2019-01-08T06:10:16.660Z,7.59
2019-01-08T06:13:03.958Z,7.42
2019-01-08T06:15:51.213Z,7.55
2019-01-08T06:18:38.025Z,7.79
2019-01-08T06:21:25.338Z,7.62
2019-01-08T06:24:14.757Z,7.47
2019-01-08T06:27:02.340Z,7.20
2019-01-08T06:29:49.984Z,7.36
2019-01-08T06:32:37.442Z,7.22
2019-01-08T06:35:24.840Z,7.49
2019-01-08T06:38:11.838Z,7.38
2019-01-08T06:40:58.932Z,7.70
2019-01-08T06:43:46.073Z,7.55
2019-01-08T06:46:33.325Z,7.77
2019-01-08T06:49:20.433Z,7.97
2019-01-08T06:52:07.542Z,7.73
2019-01-08T06:54:54.720Z,7.46
2019-01-08T06:57:42.039Z,7.44
2019-01-08T07:00:33.452Z,7.78
2019-01-08T07:03:18.457Z,7.69
2019-01-08T07:06:05.858Z,7.59
2019-01-08T07:08:52.899Z,7.48
2019-01-08T07:11:40.015Z,7.69
2019-01-08T07:14:27.507Z,7.55
2019-01-08T07:17:14.636Z,6.81
2019-01-08T07:20:01.931Z,7.01
2019-01-08T07:22:49.268Z,7.48
2019-01-08T07:25:42.094Z,7.38
2019-01-08T07:28:25.357Z,7.83
2019-01-08T07:31:12.530Z,7.69
2019-01-08T07:33:59.700Z,7.55
2019-01-08T07:36:47.151Z,7.60
2019-01-08T07:39:34.223Z,7.48
2019-01-08T07:42:21.584Z,7.57
2019-01-08T07:45:09.029Z,7.46
2019-01-08T07:47:56.049Z,7.25
2019-01-08T07:50:43.102Z,7.07
2019-01-08T07:53:30.097Z,7.21
2019-01-08T07:56:17.387Z,6.15
2019-01-08T07:59:04.790Z,7.21
2019-01-08T08:01:52.249Z,7.27
2019-01-08T08:04:47.309Z,7.25
2019-01-08T08:07:27.813Z,7.30
2019-01-08T08:10:15.170Z,7.24
2019-01-08T08:13:02.305Z,7.01
2019-01-08T08:15:49.680Z,6.97
2019-01-08T08:18:36.703Z,7.25
2019-01-08T08:21:23.893Z,7.57
2019-01-08T08:24:10.661Z,7.59
2019-01-08T08:26:58.086Z,7.55
2019-01-08T08:29:45.487Z,7.37
2019-01-08T08:32:32.550Z,7.33
2019-01-08T08:35:19.846Z,7.56
2019-01-08T08:38:07.242Z,7.45
2019-01-08T08:40:54.499Z,7.56
2019-01-08T08:43:41.802Z,7.42
2019-01-08T08:46:29.122Z,7.36
2019-01-08T08:49:16.068Z,7.08
2019-01-08T08:52:02.965Z,7.42
2019-01-08T08:54:50.403Z,7.41
2019-01-08T08:57:37.597Z,7.53
2019-01-08T09:00:24.984Z,7.62
2019-01-08T09:03:12.260Z,7.70
2019-01-08T09:05:59.859Z,7.45
2019-01-08T09:08:47.261Z,7.45
2019-01-08T09:11:34.493Z,7.58
2019-01-08T09:14:21.919Z,7.59
2019-01-08T09:17:09.246Z,7.87
2019-01-08T09:19:56.596Z,7.94
2019-01-08T09:22:43.916Z,7.89
2019-01-08T09:25:30.745Z,7.74
2019-01-08T09:28:17.619Z,7.67
2019-01-08T09:31:04.678Z,7.73
2019-01-08T09:33:51.767Z,7.57
2019-01-08T09:36:38.646Z,7.74
2019-01-08T09:39:25.372Z,7.83
2019-01-08T09:42:12.452Z,7.70
2019-01-08T09:44:59.602Z,7.88
2019-01-08T09:47:46.710Z,7.92
2019-01-08T09:50:33.724Z,8.16
2019-01-08T09:53:20.875Z,7.86
2019-01-08T09:56:08.179Z,8.01
2019-01-08T09:58:55.243Z,7.96
2019-01-08T10:01:42.243Z,7.89
2019-01-08T10:04:29.499Z,7.82
2019-01-08T10:07:16.564Z,7.84
2019-01-08T10:10:03.932Z,8.06
2019-01-08T10:12:51.112Z,8.11
2019-01-08T10:15:38.155Z,8.14
2019-01-08T10:18:25.424Z,8.22
2019-01-08T10:21:12.641Z,8.38
2019-01-08T10:24:02.049Z,8.29
2019-01-08T10:26:48.661Z,8.29
2019-01-08T10:29:35.944Z,8.01
2019-01-08T10:32:23.338Z,8.00
2019-01-08T10:35:10.320Z,8.21
2019-01-08T10:37:57.414Z,7.87
2019-01-08T10:40:44.765Z,7.84
2019-01-08T10:43:32.268Z,8.09
2019-01-08T10:46:19.613Z,8.32
2019-01-08T10:49:07.176Z,8.60
2019-01-08T10:51:54.273Z,8.62
2019-01-08T10:54:41.537Z,8.50
2019-01-08T10:57:28.688Z,8.28
2019-01-08T11:00:16.035Z,8.15
2019-01-08T11:03:03.072Z,8.21
2019-01-08T11:05:50.219Z,8.36
2019-01-08T11:08:37.404Z,8.33
2019-01-08T11:11:24.546Z,8.28
2019-01-08T11:14:11.582Z,8.23
2019-01-08T11:16:58.902Z,8.24
2019-01-08T11:19:46.236Z,8.37
2019-01-08T11:22:33.052Z,8.55
2019-01-08T11:25:20.368Z,8.41
2019-01-08T11:28:07.498Z,8.28
2019-01-08T11:30:54.746Z,8.22
2019-01-08T11:33:41.976Z,8.27
2019-01-08T11:36:29.453Z,8.27
2019-01-08T11:39:16.777Z,8.02
2019-01-08T11:42:04.773Z,8.08
2019-01-08T11:44:51.812Z,8.18
2019-01-08T11:47:38.647Z,8.34
2019-01-08T11:50:26.051Z,8.26
2019-01-08T11:53:12.906Z,8.12
2019-01-08T11:56:00.014Z,8.10
2019-01-08T11:58:47.259Z,8.39
2019-01-08T12:01:34.389Z,8.30
2019-01-08T12:04:21.481Z,8.45
2019-01-08T12:07:08.664Z,8.20
2019-01-08T12:09:55.781Z,8.07
2019-01-08T12:12:42.961Z,7.87
2019-01-08T12:15:30.215Z,8.05
2019-01-08T12:18:17.284Z,7.77
2019-01-08T12:21:04.406Z,7.96
2019-01-08T12:23:51.773Z,8.09
2019-01-08T12:26:38.890Z,8.23
2019-01-08T12:29:26.169Z,8.10
2019-01-08T12:32:13.196Z,8.27
2019-01-08T12:35:00.328Z,8.43
2019-01-08T12:37:47.303Z,8.62
2019-01-08T12:40:34.529Z,8.51
2019-01-08T12:43:22.106Z,8.55
2019-01-08T12:46:09.189Z,8.74
2019-01-08T12:48:56.243Z,8.41
2019-01-08T12:51:43.262Z,8.75
2019-01-08T12:54:30.552Z,8.57
2019-01-08T12:57:17.548Z,8.58
2019-01-08T13:00:06.861Z,8.52
2019-01-08T13:02:53.991Z,8.39
2019-01-08T13:05:40.984Z,8.09
2019-01-08T13:08:28.039Z,8.13
2019-01-08T13:11:15.560Z,8.41
2019-01-08T13:14:02.633Z,8.56
2019-01-08T13:16:49.597Z,8.42
2019-01-08T13:19:36.679Z,8.47
2019-01-08T13:22:23.531Z,8.24
2019-01-08T13:25:11.005Z,8.50
2019-01-08T13:27:58.312Z,8.37
2019-01-08T13:30:45.739Z,8.68
2019-01-08T13:33:32.537Z,8.69
2019-01-08T13:36:19.873Z,8.43
2019-01-08T13:39:07.457Z,8.48
2019-01-08T13:41:54.594Z,8.62
2019-01-08T13:44:41.806Z,8.47
2019-01-08T13:47:29.180Z,8.33
2019-01-08T13:50:16.507Z,8.28
2019-01-08T13:53:03.901Z,8.31
2019-01-08T13:55:50.764Z,8.39
2019-01-08T13:58:38.115Z,8.28
2019-01-08T14:01:25.215Z,8.37
2019-01-08T14:04:12.471Z,8.08
2019-01-08T14:06:59.793Z,8.13
2019-01-08T14:09:46.941Z,8.31
2019-01-08T14:12:33.718Z,8.39
2019-01-08T14:15:21.238Z,8.44
2019-01-08T14:18:08.808Z,8.36
2019-01-08T14:20:55.802Z,8.18
2019-01-08T14:23:43.071Z,8.36
2019-01-08T14:26:30.223Z,8.42
2019-01-08T14:29:17.237Z,8.37
2019-01-08T14:32:04.376Z,8.41
2019-01-08T14:34:51.757Z,8.39
2019-01-08T14:37:39.139Z,8.47
2019-01-08T14:40:26.307Z,8.45
2019-01-08T14:43:14.332Z,8.53
2019-01-08T14:46:01.714Z,8.51
2019-01-08T14:48:49.021Z,8.36
2019-01-08T14:51:36.281Z,8.43
2019-01-08T14:54:23.603Z,8.38
2019-01-08T14:57:11.045Z,8.23
2019-01-08T14:59:58.548Z,8.11
2019-01-08T15:02:49.744Z,8.18
2019-01-08T15:05:34.801Z,8.12
2019-01-08T15:08:21.704Z,8.17
2019-01-08T15:11:09.033Z,8.02
2019-01-08T15:13:56.140Z,7.95
2019-01-08T15:16:43.880Z,7.84
2019-01-08T15:19:30.935Z,7.92
2019-01-08T15:22:18.224Z,8.09
2019-01-08T15:25:05.160Z,8.10
2019-01-08T15:27:52.366Z,8.02
2019-01-08T15:30:39.272Z,7.97
2019-01-08T15:33:26.758Z,7.93
2019-01-08T15:36:14.237Z,7.90
2019-01-08T15:39:01.262Z,7.80
2019-01-08T15:41:48.368Z,7.51
2019-01-08T15:44:35.318Z,7.49
2019-01-08T15:47:22.406Z,7.60
2019-01-08T15:50:09.535Z,7.82
2019-01-08T15:52:56.759Z,7.85
2019-01-08T15:55:43.844Z,8.03
2019-01-08T15:58:30.858Z,8.00
2019-01-08T16:01:18.020Z,7.93
2019-01-08T16:04:05.269Z,7.91
2019-01-08T16:06:52.404Z,7.70
2019-01-08T16:09:39.804Z,7.70
2019-01-08T16:12:27.050Z,7.69
2019-01-08T16:15:13.963Z,7.94
2019-01-08T16:18:01.027Z,7.96
2019-01-08T16:20:48.182Z,8.15
2019-01-08T16:23:35.553Z,7.97
2019-01-08T16:26:22.815Z,7.98
2019-01-08T16:29:10.103Z,7.83
2019-01-08T16:31:57.238Z,7.95
2019-01-08T16:34:44.483Z,8.01
2019-01-08T16:37:31.553Z,7.95
2019-01-08T16:40:19.215Z,8.08
2019-01-08T16:43:06.331Z,8.14
2019-01-08T16:45:53.111Z,7.98
2019-01-08T16:48:40.364Z,7.88
2019-01-08T16:51:27.269Z,7.76
2019-01-08T16:54:14.624Z,7.83
2019-01-08T16:57:01.982Z,7.91
2019-01-08T16:59:50.778Z,7.86
2019-01-08T17:02:37.731Z,7.95
2019-01-08T17:05:24.829Z,7.59
2019-01-08T17:08:11.804Z,7.66
2019-01-08T17:10:58.834Z,7.53
2019-01-08T17:13:46.222Z,7.75
2019-01-08T17:16:33.613Z,7.68
2019-01-08T17:19:20.856Z,7.44
2019-01-08T17:22:07.872Z,7.28
2019-01-08T17:24:55.021Z,7.46
2019-01-08T17:27:41.986Z,7.56
2019-01-08T17:30:29.181Z,7.64
2019-01-08T17:33:16.317Z,7.70
2019-01-08T17:36:03.728Z,7.57
2019-01-08T17:38:50.779Z,7.69
2019-01-08T17:41:37.788Z,7.81
2019-01-08T17:44:24.895Z,7.68
2019-01-08T17:47:11.956Z,7.61
2019-01-08T17:49:59.146Z,7.68
2019-01-08T17:52:46.297Z,7.69
2019-01-08T17:55:33.627Z,7.81
2019-01-08T17:58:32.415Z,7.84
2019-01-08T18:01:22.354Z,7.73
2019-01-08T18:04:09.830Z,7.69
2019-01-08T18:06:56.879Z,7.44
2019-01-08T18:09:44.010Z,7.54
2019-01-08T18:12:31.450Z,7.61
2019-01-08T18:15:18.628Z,7.44
2019-01-08T18:18:05.691Z,7.57
2019-01-08T18:20:52.581Z,6.35
2019-01-08T18:23:39.958Z,7.49
2019-01-08T18:26:27.360Z,7.46
2019-01-08T18:29:14.747Z,7.20
2019-01-08T18:32:02.250Z,7.22
2019-01-08T18:34:49.589Z,7.38
2019-01-08T18:37:36.822Z,7.36
2019-01-08T18:40:24.029Z,7.56
2019-01-08T18:43:14.180Z,7.54
2019-01-08T18:46:00.167Z,7.48
2019-01-08T18:48:47.239Z,7.60
2019-01-08T18:51:34.450Z,7.47
2019-01-08T18:54:21.615Z,7.35
2019-01-08T18:57:08.591Z,7.24
2019-01-08T18:59:55.817Z,7.18
2019-01-08T19:02:42.940Z,7.29
2019-01-08T19:05:30.107Z,7.20
2019-01-08T19:08:17.218Z,7.04
2019-01-08T19:11:06.496Z,7.22
2019-01-08T19:13:53.550Z,7.13
2019-01-08T19:16:40.929Z,7.18
2019-01-08T19:19:27.846Z,7.03
2019-01-08T19:22:15.088Z,6.88
2019-01-08T19:25:02.554Z,6.86
2019-01-08T19:27:50.108Z,6.92
2019-01-08T19:30:37.565Z,6.93
2019-01-08T19:33:24.291Z,6.73
2019-01-08T19:36:12.571Z,6.88
2019-01-08T19:38:59.654Z,6.97
2019-01-08T19:41:47.153Z,6.88
2019-01-08T19:44:34.250Z,6.96
2019-01-08T19:47:21.422Z,7.22
2019-01-08T19:50:09.290Z,7.17
2019-01-08T19:52:56.600Z,7.33
2019-01-08T19:55:43.577Z,7.14
2019-01-08T19:58:30.975Z,7.13
2019-01-08T20:01:18.257Z,7.19
2019-01-08T20:04:05.711Z,7.06
2019-01-08T20:06:52.850Z,7.04
2019-01-08T20:09:40.216Z,7.04
2019-01-08T20:12:27.741Z,7.21
2019-01-08T20:15:15.084Z,7.18
2019-01-08T20:18:02.270Z,7.32
2019-01-08T20:20:49.344Z,7.34
2019-01-08T20:23:36.602Z,7.36
2019-01-08T20:26:23.590Z,7.35
2019-01-08T20:29:10.844Z,7.39
2019-01-08T20:31:57.950Z,7.25
2019-01-08T20:34:45.050Z,7.27
2019-01-08T20:37:32.299Z,7.08
2019-01-08T20:40:19.529Z,7.01
2019-01-08T20:43:06.861Z,7.08
2019-01-08T20:45:54.035Z,7.08
2019-01-08T20:48:41.493Z,7.17
2019-01-08T20:51:33.247Z,7.07
2019-01-08T20:54:20.075Z,7.06
2019-01-08T20:57:09.185Z,6.95
2019-01-08T20:59:55.966Z,6.97
2019-01-08T21:02:43.185Z,6.81
2019-01-08T21:05:30.237Z,6.69
2019-01-08T21:08:17.346Z,6.85
2019-01-08T21:11:06.167Z,6.72
2019-01-08T21:13:53.782Z,6.90
2019-01-08T21:16:41.067Z,7.02
2019-01-08T21:19:28.222Z,6.93
2019-01-08T21:22:15.487Z,6.87
2019-01-08T21:25:02.570Z,6.78
2019-01-08T21:27:49.718Z,6.55
2019-01-08T21:30:37.106Z,6.40
2019-01-08T21:33:24.149Z,6.23
2019-01-08T21:36:11.602Z,6.17
2019-01-08T21:38:58.876Z,6.18
2019-01-08T21:41:46.183Z,6.31
2019-01-08T21:44:33.452Z,6.54
2019-01-08T21:47:20.759Z,6.71
2019-01-08T21:50:08.360Z,6.50
2019-01-08T21:52:55.629Z,6.44
2019-01-08T21:55:43.065Z,6.62
2019-01-08T21:58:30.392Z,6.40
2019-01-08T22:01:17.431Z,6.31
2019-01-08T22:04:04.788Z,6.52
2019-01-08T22:06:52.113Z,6.47
2019-01-08T22:09:39.076Z,6.32
2019-01-08T22:12:25.809Z,6.39
2019-01-08T22:15:13.378Z,6.29
2019-01-08T22:18:00.193Z,6.35
2019-01-08T22:20:47.539Z,6.63
2019-01-08T22:23:34.880Z,6.74
2019-01-08T22:26:21.760Z,6.54
2019-01-08T22:29:08.984Z,6.56
2019-01-08T22:31:56.336Z,6.76
2019-01-08T22:34:43.658Z,6.77
2019-01-08T22:37:30.465Z,6.56
2019-01-08T22:40:17.986Z,6.42
2019-01-08T22:43:04.961Z,6.40
2019-01-08T22:45:52.041Z,6.05
2019-01-08T22:48:39.397Z,6.04
2019-01-08T22:51:26.477Z,5.87
2019-01-08T22:54:14.044Z,6.06
2019-01-08T22:57:01.489Z,5.98
2019-01-08T22:59:48.522Z,6.10
2019-01-08T23:02:35.573Z,6.09
2019-01-08T23:05:22.711Z,5.90
2019-01-08T23:08:09.890Z,5.84
2019-01-08T23:10:57.462Z,6.03
2019-01-08T23:13:44.591Z,6.15
2019-01-08T23:16:31.802Z,6.16
2019-01-08T23:19:19.308Z,6.03
2019-01-08T23:22:06.892Z,5.83
2019-01-08T23:24:54.344Z,6.03
2019-01-08T23:27:41.484Z,5.97
2019-01-08T23:30:28.703Z,6.07
2019-01-08T23:33:15.766Z,6.24
2019-01-08T23:36:02.904Z,6.23
2019-01-08T23:38:50.040Z,6.01
2019-01-08T23:41:37.379Z,6.04
2019-01-08T23:44:24.830Z,5.97
2019-01-08T23:47:12.239Z,5.58
2019-01-08T23:49:59.584Z,5.05
2019-01-08T23:52:55.640Z,5.09
2019-01-08T23:55:45.929Z,5.06
2019-01-08T23:58:33.269Z,5.00
